createdAt,value
2024-02-02T00:02:08.761Z,100074.00
2024-02-02T00:04:35.335Z,100055.00
2024-02-02T00:07:01.989Z,100050.00
2024-02-02T00:09:28.625Z,100039.00
2024-02-02T00:11:55.165Z,100035.00
2024-02-02T00:14:21.851Z,100021.00
2024-02-02T00:16:48.466Z,100021.00
2024-02-02T00:19:15.187Z,100022.00
2024-02-02T00:21:41.904Z,100039.00
2024-02-02T00:24:08.692Z,100041.00
2024-02-02T00:26:35.511Z,100039.00
2024-02-02T00:29:02.181Z,100032.00
2024-02-02T00:31:28.710Z,100033.00
2024-02-02T00:33:55.399Z,100026.00
2024-02-02T00:36:22.209Z,100016.00
2024-02-02T00:38:49.077Z,100018.00
2024-02-02T00:41:15.644Z,100024.00
2024-02-02T00:43:42.357Z,100029.00
2024-02-02T00:46:09.009Z,100008.00
2024-02-02T00:48:35.888Z,100025.00
2024-02-02T00:51:02.759Z,100028.00
2024-02-02T00:53:29.470Z,100030.00
2024-02-02T00:55:56.206Z,100026.00
2024-02-02T00:58:22.760Z,100031.00
2024-02-02T01:00:49.286Z,100031.00
2024-02-02T01:03:15.949Z,100034.00
2024-02-02T01:05:42.582Z,100031.00
2024-02-02T01:08:09.250Z,100018.00
2024-02-02T01:10:35.824Z,100012.00
2024-02-02T01:13:02.370Z,100011.00
2024-02-02T01:15:29.081Z,100010.00
2024-02-02T01:17:55.804Z,100023.00
2024-02-02T01:20:22.518Z,100018.00
2024-02-02T01:22:49.289Z,100019.00
2024-02-02T01:25:16.009Z,100021.00
2024-02-02T01:27:42.965Z,100020.00
2024-02-02T01:30:12.721Z,100022.00
2024-02-02T01:32:39.954Z,100020.00
2024-02-02T01:35:06.800Z,100024.00
2024-02-02T01:37:33.287Z,100023.00
2024-02-02T01:39:59.875Z,100015.00
2024-02-02T01:42:26.563Z,100015.00
2024-02-02T01:44:53.416Z,100011.00
2024-02-02T01:47:20.054Z,100018.00
2024-02-02T01:49:46.805Z,100020.00
2024-02-02T01:52:13.805Z,100022.00
2024-02-02T01:54:40.579Z,100031.00
2024-02-02T01:57:07.330Z,100031.00
2024-02-02T01:59:34.343Z,100028.00
2024-02-02T02:02:00.950Z,100018.00
2024-02-02T02:04:27.659Z,100026.00
2024-02-02T02:06:54.497Z,100014.00
2024-02-02T02:09:21.226Z,100015.00
2024-02-02T02:11:47.799Z,100018.00
2024-02-02T02:14:14.409Z,100015.00
2024-02-02T02:16:41.009Z,100005.00
2024-02-02T02:19:13.881Z,100013.00
2024-02-02T02:21:40.478Z,100015.00
2024-02-02T02:24:07.093Z,100012.00
2024-02-02T02:26:33.672Z,100019.00
2024-02-02T02:29:00.217Z,100017.00
2024-02-02T02:31:26.866Z,100023.00
2024-02-02T02:33:53.547Z,100011.00
2024-02-02T02:36:22.101Z,100024.00
2024-02-02T02:38:49.583Z,100020.00
2024-02-02T02:41:16.308Z,99999.00
2024-02-02T02:43:42.952Z,100008.00
2024-02-02T02:46:09.795Z,100007.00
2024-02-02T02:48:39.737Z,100014.00
2024-02-02T02:51:06.659Z,99999.00
2024-02-02T02:53:33.307Z,99993.00
2024-02-02T02:55:59.861Z,99997.00
2024-02-02T02:58:26.537Z,99990.00
2024-02-02T03:00:54.397Z,99983.00
2024-02-02T03:03:21.071Z,99979.00
2024-02-02T03:05:48.257Z,99975.00
2024-02-02T03:08:15.039Z,99980.00
2024-02-02T03:10:43.079Z,99968.00
2024-02-02T03:13:10.449Z,99959.00
2024-02-02T03:15:37.292Z,99956.00
2024-02-02T03:18:04.835Z,99956.00
2024-02-02T03:20:31.419Z,99978.00
2024-02-02T03:22:58.048Z,99987.00
2024-02-02T03:25:24.701Z,99975.00
2024-02-02T03:27:51.295Z,99973.00
2024-02-02T03:30:17.931Z,99980.00
2024-02-02T03:32:45.724Z,99983.00
2024-02-02T03:35:13.002Z,99962.00
2024-02-02T03:37:39.597Z,99955.00
2024-02-02T03:40:06.640Z,99957.00
2024-02-02T03:42:33.245Z,99947.00
2024-02-02T03:44:59.807Z,99944.00
2024-02-02T03:47:26.425Z,99972.00
2024-02-02T03:49:52.928Z,99961.00
2024-02-02T03:52:24.273Z,99962.00
2024-02-02T03:54:51.846Z,99971.00
2024-02-02T03:57:19.030Z,99966.00
2024-02-02T03:59:45.797Z,99964.00
2024-02-02T04:02:12.751Z,99965.00
2024-02-02T04:04:39.314Z,99973.00
2024-02-02T04:07:05.884Z,99973.00
2024-02-02T04:09:32.940Z,99975.00
2024-02-02T04:11:59.572Z,99967.00
2024-02-02T04:14:26.111Z,99964.00
2024-02-02T04:16:52.609Z,99953.00
2024-02-02T04:19:20.812Z,99967.00
2024-02-02T04:21:47.831Z,99959.00
2024-02-02T04:24:14.438Z,99959.00
2024-02-02T04:26:40.963Z,99952.00
2024-02-02T04:29:07.512Z,99966.00
2024-02-02T04:31:34.091Z,99948.00
2024-02-02T04:34:00.775Z,99949.00
2024-02-02T04:36:27.481Z,99962.00
2024-02-02T04:38:54.108Z,99968.00
2024-02-02T04:41:20.794Z,99982.00
2024-02-02T04:43:47.330Z,99976.00
2024-02-02T04:46:13.827Z,99977.00
2024-02-02T04:48:40.597Z,99971.00
2024-02-02T04:51:07.187Z,99967.00
2024-02-02T04:53:33.770Z,99972.00
2024-02-02T04:56:00.290Z,99981.00
2024-02-02T04:58:27.498Z,99981.00
2024-02-02T05:00:54.034Z,99998.00
2024-02-02T05:03:20.706Z,99995.00
2024-02-02T05:05:47.184Z,100000.00
2024-02-02T05:08:13.978Z,100003.00
2024-02-02T05:10:40.677Z,99988.00
2024-02-02T05:13:07.291Z,99979.00
2024-02-02T05:15:34.058Z,99993.00
2024-02-02T05:18:01.178Z,99994.00
2024-02-02T05:20:27.838Z,100008.00
2024-02-02T05:22:54.331Z,100009.00
2024-02-02T05:25:21.013Z,100002.00
2024-02-02T05:27:47.507Z,100011.00
2024-02-02T05:30:14.229Z,100010.00
2024-02-02T05:32:41.323Z,100012.00
2024-02-02T05:35:08.398Z,100019.00
2024-02-02T05:37:35.128Z,100029.00
2024-02-02T05:40:01.705Z,100044.00
2024-02-02T05:42:28.255Z,100043.00
2024-02-02T05:44:54.931Z,100046.00
2024-02-02T05:47:22.106Z,100031.00
2024-02-02T05:49:48.838Z,100029.00
2024-02-02T05:52:15.479Z,100030.00
2024-02-02T05:54:42.161Z,100033.00
2024-02-02T05:57:08.723Z,100039.00
2024-02-02T05:59:35.266Z,100031.00
2024-02-02T06:02:01.795Z,100039.00
2024-02-02T06:04:28.819Z,100030.00
2024-02-02T06:06:55.518Z,100030.00
2024-02-02T06:09:22.103Z,100023.00
2024-02-02T06:11:48.640Z,100013.00
2024-02-02T06:14:15.224Z,100013.00
2024-02-02T06:16:41.765Z,99998.00
2024-02-02T06:19:08.505Z,100003.00
2024-02-02T06:21:35.112Z,100002.00
2024-02-02T06:24:01.697Z,100015.00
2024-02-02T06:26:28.247Z,100017.00
2024-02-02T06:28:54.747Z,100019.00
2024-02-02T06:31:22.988Z,100021.00
2024-02-02T06:33:49.697Z,100026.00
2024-02-02T06:36:16.302Z,100035.00
2024-02-02T06:38:42.801Z,100028.00
2024-02-02T06:41:12.048Z,100015.00
2024-02-02T06:43:38.975Z,100010.00
2024-02-02T06:46:05.560Z,100009.00
2024-02-02T06:48:32.233Z,100017.00
2024-02-02T06:50:59.420Z,100017.00
2024-02-02T06:53:30.098Z,100026.00
2024-02-02T06:55:56.921Z,100029.00
2024-02-02T06:58:42.174Z,100033.00
2024-02-02T07:01:09.847Z,100029.00
2024-02-02T07:03:37.800Z,100026.00
2024-02-02T07:06:07.759Z,100036.00
2024-02-02T07:08:34.612Z,100038.00
2024-02-02T07:11:13.327Z,100039.00
2024-02-02T07:13:52.366Z,100042.00
2024-02-02T07:16:37.949Z,100052.00
2024-02-02T07:19:05.099Z,100045.00
2024-02-02T07:21:33.152Z,100051.00
2024-02-02T07:24:00.595Z,100058.00
2024-02-02T07:26:30.729Z,100069.00
2024-02-02T07:28:58.831Z,100060.00
2024-02-02T07:31:39.001Z,100051.00
2024-02-02T07:34:33.635Z,100042.00
2024-02-02T07:37:00.391Z,100039.00
2024-02-02T07:39:30.305Z,100052.00
2024-02-02T07:41:59.109Z,100053.00
2024-02-02T07:44:26.425Z,100055.00
2024-02-02T07:46:54.140Z,100054.00
2024-02-02T07:49:20.716Z,100052.00
2024-02-02T07:51:47.316Z,100047.00
2024-02-02T07:54:14.328Z,100038.00
2024-02-02T07:56:40.998Z,100031.00
2024-02-02T07:59:07.598Z,100029.00
2024-02-02T08:01:34.678Z,100033.00
2024-02-02T08:04:04.377Z,100037.00
2024-02-02T08:06:31.420Z,100037.00
2024-02-02T08:08:58.538Z,100038.00
2024-02-02T08:11:26.892Z,100044.00
2024-02-02T08:13:53.481Z,100048.00
2024-02-02T08:16:20.178Z,100037.00
2024-02-02T08:18:47.122Z,100038.00
2024-02-02T08:21:13.981Z,100032.00
2024-02-02T08:23:41.682Z,100029.00
2024-02-02T08:26:08.591Z,100033.00
2024-02-02T08:28:42.235Z,100032.00
2024-02-02T08:31:15.505Z,100035.00
2024-02-02T08:33:43.799Z,100025.00
2024-02-02T08:36:11.456Z,100036.00
2024-02-02T08:38:38.307Z,100024.00
2024-02-02T08:41:06.352Z,100019.00
2024-02-02T08:43:33.430Z,100024.00
2024-02-02T08:46:16.206Z,100028.00
2024-02-02T08:48:46.573Z,100020.00
2024-02-02T08:51:19.277Z,100023.00
2024-02-02T08:53:45.864Z,100015.00
2024-02-02T08:56:13.763Z,100028.00
2024-02-02T08:58:40.434Z,100017.00
2024-02-02T09:01:39.606Z,100021.00
2024-02-02T09:04:06.477Z,100026.00
2024-02-02T09:06:43.320Z,100031.00
2024-02-02T09:09:18.306Z,100030.00
2024-02-02T09:11:49.265Z,100029.00
2024-02-02T09:14:18.877Z,100026.00
2024-02-02T09:16:49.069Z,100029.00
2024-02-02T09:19:30.426Z,100030.00
2024-02-02T09:22:02.369Z,100018.00
2024-02-02T09:24:40.730Z,100025.00
2024-02-02T09:27:11.255Z,100026.00
2024-02-02T09:29:45.436Z,100033.00
2024-02-02T09:32:14.380Z,100044.00
2024-02-02T09:34:42.021Z,100050.00
2024-02-02T09:37:25.669Z,100033.00
2024-02-02T09:39:56.779Z,100021.00
2024-02-02T09:43:15.853Z,100021.00
2024-02-02T09:45:53.583Z,100024.00
2024-02-02T09:48:34.359Z,100031.00
2024-02-02T09:51:19.426Z,100033.00
2024-02-02T09:54:01.707Z,100040.00
2024-02-02T09:56:56.694Z,100041.00
2024-02-02T09:59:28.360Z,100030.00
2024-02-02T10:02:22.049Z,100037.00
2024-02-02T10:05:16.747Z,100038.00
2024-02-02T10:08:03.124Z,100040.00
2024-02-02T10:10:43.169Z,100041.00
2024-02-02T10:13:47.520Z,100040.00
2024-02-02T10:16:26.810Z,100032.00
2024-02-02T10:19:12.699Z,100048.00
2024-02-02T10:21:50.775Z,100047.00
2024-02-02T10:24:29.170Z,100034.00
2024-02-02T10:27:11.001Z,100049.00
2024-02-02T10:29:49.914Z,100025.00
2024-02-02T10:32:35.262Z,100035.00
2024-02-02T10:35:05.951Z,100040.00
2024-02-02T10:37:37.161Z,100036.00
2024-02-02T10:40:10.735Z,100043.00
2024-02-02T10:42:52.135Z,100042.00
2024-02-02T10:45:33.300Z,100038.00
2024-02-02T10:48:23.288Z,100041.00
2024-02-02T10:51:01.376Z,100041.00
2024-02-02T10:54:01.158Z,100040.00
2024-02-02T10:56:46.626Z,100037.00
2024-02-02T10:59:29.192Z,100020.00
2024-02-02T11:02:06.340Z,100027.00
2024-02-02T11:04:49.277Z,100024.00
2024-02-02T11:07:22.935Z,100021.00
2024-02-02T11:10:04.450Z,100007.00
2024-02-02T11:12:46.199Z,100004.00
2024-02-02T11:15:20.764Z,100003.00
2024-02-02T11:18:11.996Z,100008.00
2024-02-02T11:20:58.901Z,99992.00
2024-02-02T11:23:37.483Z,99989.00
2024-02-02T11:26:19.844Z,99989.00
2024-02-02T11:29:05.997Z,99999.00
2024-02-02T11:31:50.643Z,99993.00
2024-02-02T11:34:39.128Z,99985.00
2024-02-02T11:37:24.110Z,99972.00
2024-02-02T11:40:00.725Z,99971.00
2024-02-02T11:42:29.566Z,99968.00
2024-02-02T11:44:58.203Z,99980.00
2024-02-02T11:47:26.556Z,99966.00
2024-02-02T11:50:06.642Z,99965.00
2024-02-02T11:52:40.733Z,99967.00
2024-02-02T11:55:13.301Z,99955.00
2024-02-02T11:57:48.320Z,99954.00
2024-02-02T12:00:44.388Z,99952.00
2024-02-02T12:03:37.583Z,99953.00
2024-02-02T12:06:16.586Z,99962.00
2024-02-02T12:09:13.044Z,99952.00
2024-02-02T12:11:44.377Z,99955.00
2024-02-02T12:14:32.019Z,99955.00
2024-02-02T12:16:59.973Z,99953.00
2024-02-02T12:19:28.088Z,99958.00
2024-02-02T12:21:55.639Z,99950.00
2024-02-02T12:24:23.295Z,99950.00
2024-02-02T12:26:51.127Z,99943.00
2024-02-02T12:29:18.107Z,99940.00
2024-02-02T12:31:44.812Z,99944.00
2024-02-02T12:34:13.548Z,99937.00
2024-02-02T12:36:40.380Z,99932.00
2024-02-02T12:39:07.416Z,99931.00
2024-02-02T12:41:35.896Z,99938.00
2024-02-02T12:44:03.073Z,99929.00
2024-02-02T12:46:29.947Z,99926.00
2024-02-02T12:48:57.137Z,99921.00
2024-02-02T12:51:24.218Z,99920.00
2024-02-02T12:53:51.496Z,99919.00
2024-02-02T12:56:19.073Z,99918.00
2024-02-02T12:58:45.953Z,99908.00
2024-02-02T13:01:13.056Z,99900.00
2024-02-02T13:03:44.347Z,99902.00
2024-02-02T13:06:12.953Z,99904.00
2024-02-02T13:08:42.063Z,99900.00
2024-02-02T13:11:19.791Z,99900.00
2024-02-02T13:13:46.591Z,99883.00
2024-02-02T13:16:33.561Z,99885.00
2024-02-02T13:19:00.205Z,99878.00
2024-02-02T13:21:30.725Z,99880.00
2024-02-02T13:23:58.285Z,99866.00
2024-02-02T13:26:40.669Z,99867.00
2024-02-02T13:29:08.961Z,99865.00
2024-02-02T13:31:38.547Z,99858.00
2024-02-02T13:34:06.446Z,99864.00
2024-02-02T13:36:40.088Z,99864.00
2024-02-02T13:39:06.803Z,99862.00
2024-02-02T13:41:37.207Z,99863.00
2024-02-02T13:44:07.829Z,99863.00
2024-02-02T13:46:45.730Z,99864.00
2024-02-02T13:49:23.088Z,99855.00
2024-02-02T13:51:50.095Z,99852.00
2024-02-02T13:54:20.107Z,99849.00
2024-02-02T13:56:46.818Z,99844.00
2024-02-02T13:59:20.148Z,99835.00
2024-02-02T14:01:47.311Z,99822.00
2024-02-02T14:04:23.163Z,99823.00
2024-02-02T14:06:50.008Z,99812.00
2024-02-02T14:09:23.820Z,99821.00
2024-02-02T14:11:51.072Z,99808.00
2024-02-02T14:14:24.999Z,99818.00
2024-02-02T14:16:51.889Z,99812.00
2024-02-02T14:19:19.661Z,99802.00
2024-02-02T14:21:46.425Z,99793.00
2024-02-02T14:24:15.812Z,99791.00
2024-02-02T14:26:55.903Z,99802.00
2024-02-02T14:29:25.366Z,99802.00
2024-02-02T14:31:57.676Z,99801.00
2024-02-02T14:34:25.789Z,99810.00
2024-02-02T14:36:53.714Z,99803.00
2024-02-02T14:39:27.594Z,99817.00
2024-02-02T14:41:55.772Z,99824.00
2024-02-02T14:44:23.149Z,99812.00
2024-02-02T14:46:50.204Z,99817.00
2024-02-02T14:49:18.154Z,99804.00
2024-02-02T14:51:44.854Z,99817.00
2024-02-02T14:54:11.488Z,99809.00
2024-02-02T14:56:38.626Z,99805.00
2024-02-02T14:59:09.200Z,99813.00
2024-02-02T15:01:37.544Z,99809.00
2024-02-02T15:04:08.557Z,99807.00
2024-02-02T15:06:37.484Z,99803.00
2024-02-02T15:09:09.973Z,99801.00
2024-02-02T15:11:36.794Z,99790.00
2024-02-02T15:14:03.372Z,99804.00
2024-02-02T15:16:31.533Z,99800.00
2024-02-02T15:18:58.564Z,99799.00
2024-02-02T15:21:25.133Z,99789.00
2024-02-02T15:23:51.730Z,99786.00
2024-02-02T15:26:18.255Z,99794.00
2024-02-02T15:28:44.823Z,99792.00
2024-02-02T15:31:12.728Z,99789.00
2024-02-02T15:33:39.355Z,99785.00
2024-02-02T15:36:06.405Z,99787.00
2024-02-02T15:38:32.950Z,99782.00
2024-02-02T15:41:00.576Z,99788.00
2024-02-02T15:43:27.249Z,99789.00
2024-02-02T15:45:54.741Z,99790.00
2024-02-02T15:48:22.378Z,99799.00
2024-02-02T15:50:50.475Z,99792.00
2024-02-02T15:53:19.181Z,99792.00
2024-02-02T15:55:49.497Z,99791.00
2024-02-02T15:58:16.275Z,99795.00
2024-02-02T16:00:42.935Z,99791.00
2024-02-02T16:03:09.706Z,99797.00
2024-02-02T16:05:36.736Z,99796.00
2024-02-02T16:08:03.346Z,99806.00
2024-02-02T16:10:30.990Z,99790.00
2024-02-02T16:13:00.239Z,99789.00
2024-02-02T16:15:28.624Z,99802.00
2024-02-02T16:17:55.378Z,99803.00
2024-02-02T16:20:21.999Z,99795.00
2024-02-02T16:22:48.574Z,99790.00
2024-02-02T16:25:19.596Z,99797.00
2024-02-02T16:27:46.436Z,99798.00
2024-02-02T16:30:13.993Z,99787.00
2024-02-02T16:32:40.626Z,99788.00
2024-02-02T16:35:09.304Z,99783.00
2024-02-02T16:37:39.400Z,99787.00
2024-02-02T16:40:10.445Z,99795.00
2024-02-02T16:42:41.238Z,99793.00
2024-02-02T16:45:09.073Z,99807.00
2024-02-02T16:47:35.870Z,99801.00
2024-02-02T16:50:03.545Z,99800.00
2024-02-02T16:52:30.313Z,99800.00
2024-02-02T16:54:56.898Z,99799.00
2024-02-02T16:57:23.522Z,99789.00
2024-02-02T16:59:50.056Z,99791.00
2024-02-02T17:02:17.003Z,99788.00
2024-02-02T17:04:43.655Z,99790.00
2024-02-02T17:07:10.458Z,99791.00
2024-02-02T17:09:40.096Z,99793.00
2024-02-02T17:12:08.159Z,99793.00
2024-02-02T17:14:34.905Z,99788.00
2024-02-02T17:17:03.877Z,99784.00
2024-02-02T17:19:30.531Z,99788.00
2024-02-02T17:21:57.206Z,99800.00
2024-02-02T17:24:23.863Z,99796.00
2024-02-02T17:26:50.567Z,99801.00
2024-02-02T17:29:18.419Z,99805.00
2024-02-02T17:31:47.184Z,99804.00
2024-02-02T17:34:14.575Z,99807.00
2024-02-02T17:36:41.400Z,99817.00
2024-02-02T17:39:08.213Z,99800.00
2024-02-02T17:41:35.012Z,99805.00
2024-02-02T17:44:01.546Z,99807.00
2024-02-02T17:46:28.124Z,99803.00
2024-02-02T17:48:54.719Z,99786.00
2024-02-02T17:51:22.820Z,99787.00
2024-02-02T17:53:49.839Z,99788.00
2024-02-02T17:56:18.184Z,99785.00
2024-02-02T17:58:45.101Z,99794.00
2024-02-02T18:01:11.748Z,99800.00
2024-02-02T18:03:38.561Z,99807.00
2024-02-02T18:06:05.855Z,99813.00
2024-02-02T18:08:32.714Z,99817.00
2024-02-02T18:11:00.107Z,99807.00
2024-02-02T18:13:26.889Z,99810.00
2024-02-02T18:15:53.643Z,99817.00
2024-02-02T18:18:21.462Z,99811.00
2024-02-02T18:20:49.304Z,99806.00
2024-02-02T18:23:15.924Z,99818.00
2024-02-02T18:25:42.701Z,99819.00
2024-02-02T18:28:13.774Z,99818.00
2024-02-02T18:30:43.417Z,99825.00
2024-02-02T18:33:10.154Z,99835.00
2024-02-02T18:35:36.855Z,99831.00
2024-02-02T18:38:03.607Z,99848.00
2024-02-02T18:40:30.257Z,99831.00
2024-02-02T18:42:56.892Z,99840.00
2024-02-02T18:45:23.583Z,99840.00
2024-02-02T18:47:50.377Z,99829.00
2024-02-02T18:50:17.711Z,99825.00
2024-02-02T18:52:44.508Z,99827.00
2024-02-02T18:55:11.257Z,99813.00
2024-02-02T18:57:37.861Z,99797.00
2024-02-02T19:00:05.089Z,99806.00
2024-02-02T19:02:31.643Z,99803.00
2024-02-02T19:04:58.307Z,99792.00
2024-02-02T19:07:26.736Z,99795.00
2024-02-02T19:09:53.560Z,99792.00
2024-02-02T19:12:20.200Z,99788.00
2024-02-02T19:14:46.881Z,99803.00
2024-02-02T19:17:13.406Z,99792.00
2024-02-02T19:19:40.507Z,99784.00
2024-02-02T19:22:07.387Z,99787.00
2024-02-02T19:24:34.139Z,99790.00
2024-02-02T19:27:00.661Z,99793.00
2024-02-02T19:29:27.414Z,99788.00
2024-02-02T19:31:54.019Z,99791.00
2024-02-02T19:34:20.868Z,99799.00
2024-02-02T19:36:47.850Z,99794.00
2024-02-02T19:39:14.618Z,99794.00
2024-02-02T19:41:41.163Z,99788.00
2024-02-02T19:44:07.850Z,99788.00
2024-02-02T19:46:35.093Z,99798.00
2024-02-02T19:49:03.110Z,99785.00
2024-02-02T19:51:30.577Z,99781.00
2024-02-02T19:53:57.300Z,99781.00
2024-02-02T19:56:24.505Z,99794.00
2024-02-02T19:58:51.753Z,99783.00
2024-02-02T20:01:20.845Z,99783.00
2024-02-02T20:03:49.424Z,99777.00
2024-02-02T20:06:18.012Z,99789.00
2024-02-02T20:08:45.958Z,99784.00
2024-02-02T20:11:13.983Z,99781.00
2024-02-02T20:13:41.346Z,99791.00
2024-02-02T20:16:08.698Z,99792.00
2024-02-02T20:18:35.682Z,99798.00
2024-02-02T20:21:03.119Z,99799.00
2024-02-02T20:23:35.073Z,99784.00
2024-02-02T20:26:05.291Z,99788.00
2024-02-02T20:28:32.355Z,99784.00
2024-02-02T20:31:00.153Z,99788.00
2024-02-02T20:33:27.011Z,99789.00
2024-02-02T20:35:53.674Z,99782.00
2024-02-02T20:38:20.285Z,99786.00
2024-02-02T20:40:46.820Z,99792.00
2024-02-02T20:43:13.447Z,99794.00
2024-02-02T20:45:40.241Z,99793.00
2024-02-02T20:48:07.230Z,99809.00
2024-02-02T20:50:33.879Z,99800.00
2024-02-02T20:53:00.549Z,99794.00
2024-02-02T20:55:27.569Z,99799.00
2024-02-02T20:57:54.277Z,99793.00
2024-02-02T21:00:21.812Z,99782.00
2024-02-02T21:02:48.526Z,99780.00
2024-02-02T21:05:15.523Z,99785.00
2024-02-02T21:07:42.521Z,99784.00
2024-02-02T21:10:10.922Z,99800.00
2024-02-02T21:12:38.335Z,99796.00
2024-02-02T21:15:05.449Z,99801.00
2024-02-02T21:17:33.465Z,99794.00
2024-02-02T21:20:00.797Z,99793.00
2024-02-02T21:22:28.888Z,99785.00
2024-02-02T21:24:55.802Z,99796.00
2024-02-02T21:27:22.482Z,99799.00
2024-02-02T21:29:49.119Z,99792.00
2024-02-02T21:32:16.053Z,99804.00
2024-02-02T21:34:42.776Z,99797.00
2024-02-02T21:37:09.834Z,99808.00
2024-02-02T21:39:38.424Z,99806.00
2024-02-02T21:42:05.513Z,99803.00
2024-02-02T21:44:35.362Z,99826.00
2024-02-02T21:47:03.329Z,99809.00
2024-02-02T21:49:30.739Z,99819.00
2024-02-02T21:51:57.440Z,99819.00
2024-02-02T21:54:24.301Z,99817.00
2024-02-02T21:56:51.069Z,99826.00
2024-02-02T21:59:17.869Z,99827.00
2024-02-02T22:01:44.754Z,99822.00
2024-02-02T22:04:13.369Z,99827.00
2024-02-02T22:06:40.277Z,99828.00
2024-02-02T22:09:07.378Z,99830.00
2024-02-02T22:11:33.951Z,99827.00
2024-02-02T22:14:00.657Z,99827.00
2024-02-02T22:16:27.227Z,99823.00
2024-02-02T22:18:54.055Z,99817.00
2024-02-02T22:21:27.263Z,99818.00
2024-02-02T22:23:53.879Z,99823.00
2024-02-02T22:26:21.434Z,99820.00
2024-02-02T22:28:49.050Z,99836.00
2024-02-02T22:31:23.087Z,99833.00
2024-02-02T22:33:50.490Z,99844.00
2024-02-02T22:36:22.548Z,99838.00
2024-02-02T22:38:51.188Z,99839.00
2024-02-02T22:41:32.861Z,99831.00
2024-02-02T22:44:01.606Z,99832.00
2024-02-02T22:46:32.276Z,99832.00
2024-02-02T22:48:59.204Z,99826.00
2024-02-02T22:51:26.139Z,99824.00
2024-02-02T22:53:52.797Z,99812.00
2024-02-02T22:56:22.442Z,99828.00
2024-02-02T22:58:48.989Z,99831.00
2024-02-02T23:01:15.822Z,99823.00
2024-02-02T23:03:42.763Z,99826.00
2024-02-02T23:06:09.654Z,99818.00
2024-02-02T23:08:36.458Z,99822.00
2024-02-02T23:11:03.195Z,99827.00
2024-02-02T23:13:29.813Z,99813.00
2024-02-02T23:15:59.183Z,99819.00
2024-02-02T23:18:27.573Z,99818.00
2024-02-02T23:20:55.244Z,99823.00
2024-02-02T23:23:23.958Z,99822.00
2024-02-02T23:25:51.183Z,99821.00
2024-02-02T23:28:18.817Z,99812.00
2024-02-02T23:30:47.464Z,99831.00
2024-02-02T23:33:14.486Z,99827.00
2024-02-02T23:35:42.124Z,99832.00
2024-02-02T23:38:09.679Z,99834.00
2024-02-02T23:40:36.438Z,99831.00
2024-02-02T23:43:03.782Z,99836.00
2024-02-02T23:45:30.816Z,99833.00
2024-02-02T23:47:57.690Z,99827.00
2024-02-02T23:50:24.457Z,99826.00
2024-02-02T23:52:51.012Z,99829.00
2024-02-02T23:55:17.802Z,99832.00
2024-02-02T23:57:45.022Z,99828.00
